Time,TemperatureF,DewpointF,PressureIn,WindDirection,WindDirectionDegrees,WindSpeedMPH,WindSpeedGustMPH,Humidity,HourlyPrecipIn,Conditions,Clouds,dailyrainin,SolarRadiationWatts/m^2,SoftwareType,DateUTC
2013-05-06 00:01:00,56.0,27.0,-100.00,NE,56,6.0,13.0,32,0.00,,,0.00,0.000000,,2013-05-06 07:01:00,
2013-05-06 00:11:00,56.0,27.0,-100.00,NE,56,6.0,13.0,32,0.00,,,0.00,0.000000,,2013-05-06 07:11:00,
2013-05-06 00:42:00,57.0,29.0,-100.00,NE,41,8.0,12.0,34,0.00,,,0.00,0.000000,,2013-05-06 07:42:00,
2013-05-06 00:52:00,57.0,29.0,-100.00,NE,41,8.0,12.0,34,0.00,,,0.00,0.000000,,2013-05-06 07:52:00,
2013-05-06 01:01:00,57.0,29.0,-100.00,NE,41,8.0,12.0,34,0.00,,,0.00,0.000000,,2013-05-06 08:01:00,
2013-05-06 01:12:00,57.0,29.0,-100.00,NE,41,8.0,12.0,34,0.00,,,0.00,0.000000,,2013-05-06 08:12:00,
2013-05-06 01:32:00,55.0,29.0,-100.00,ENE,69,5.0,10.0,36,0.00,,,0.00,0.000000,,2013-05-06 08:32:00,
2013-05-06 01:42:00,55.0,29.0,-100.00,ENE,69,5.0,10.0,36,0.00,,,0.00,0.000000,,2013-05-06 08:42:00,
2013-05-06 01:52:00,55.0,29.0,-100.00,ENE,69,5.0,10.0,36,0.00,,,0.00,0.000000,,2013-05-06 08:52:00,
2013-05-06 02:01:00,55.0,29.0,-100.00,ENE,69,5.0,10.0,36,0.00,,,0.00,0.000000,,2013-05-06 09:01:00,
2013-05-06 02:11:00,55.0,29.0,-100.00,ENE,69,5.0,10.0,36,0.00,,,0.00,0.000000,,2013-05-06 09:11:00,
2013-05-06 02:43:00,54.0,28.0,-100.00,SW,217,4.0,7.0,37,0.00,,,0.00,0.000000,,2013-05-06 09:43:00,
2013-05-06 02:53:00,54.0,28.0,-100.00,SW,217,4.0,7.0,37,0.00,,,0.00,0.000000,,2013-05-06 09:53:00,
2013-05-06 03:02:00,54.0,28.0,-100.00,SW,217,4.0,7.0,37,0.00,,,0.00,0.000000,,2013-05-06 10:02:00,
2013-05-06 03:12:00,54.0,28.0,-100.00,SW,217,4.0,7.0,37,0.00,,,0.00,0.000000,,2013-05-06 10:12:00,
2013-05-06 03:42:00,52.0,28.0,-100.00,SSE,163,3.0,5.0,40,0.00,,,0.00,0.000000,,2013-05-06 10:42:00,
2013-05-06 03:52:00,52.0,28.0,-100.00,SSE,163,3.0,5.0,40,0.00,,,0.00,0.000000,,2013-05-06 10:52:00,
2013-05-06 04:02:00,52.0,28.0,-100.00,SSE,163,3.0,5.0,40,0.00,,,0.00,0.000000,,2013-05-06 11:02:00,
2013-05-06 04:11:00,52.0,28.0,-100.00,SSE,163,3.0,5.0,40,0.00,,,0.00,0.000000,,2013-05-06 11:11:00,
2013-05-06 04:32:00,50.0,27.0,-100.00,SE,139,5.0,9.0,41,0.00,,,0.00,0.000000,,2013-05-06 11:32:00,
2013-05-06 04:42:00,50.0,27.0,-100.00,SE,139,5.0,9.0,41,0.00,,,0.00,0.000000,,2013-05-06 11:42:00,
2013-05-06 04:52:00,50.0,27.0,-100.00,SE,139,5.0,9.0,41,0.00,,,0.00,0.000000,,2013-05-06 11:52:00,
2013-05-06 05:01:00,50.0,27.0,-100.00,SE,139,5.0,9.0,41,0.00,,,0.00,0.000000,,2013-05-06 12:01:00,
2013-05-06 05:12:00,50.0,27.0,-100.00,SE,139,5.0,9.0,41,0.00,,,0.00,0.000000,,2013-05-06 12:12:00,
2013-05-06 07:42:00,56.0,33.0,-100.00,SE,142,4.0,6.0,41,-99.99,,,0.00,131.000000,,2013-05-06 14:42:00,
2013-05-06 07:52:00,56.0,33.0,-100.00,SE,142,4.0,6.0,41,-99.99,,,0.00,131.000000,,2013-05-06 14:52:00,
2013-05-06 08:33:00,62.0,34.0,-100.00,ESE,121,2.0,5.0,35,-99.99,,,0.00,340.000000,,2013-05-06 15:33:00,
2013-05-06 09:42:00,64.0,36.0,-100.00,NNW,338,4.0,8.0,35,-99.99,,,0.00,560.000000,,2013-05-06 16:42:00,
2013-05-06 09:52:00,64.0,36.0,-100.00,NNW,338,4.0,8.0,35,-99.99,,,0.00,560.000000,,2013-05-06 16:52:00,
2013-05-06 10:02:00,64.0,36.0,-100.00,NNW,338,4.0,8.0,35,-99.99,,,0.00,560.000000,,2013-05-06 17:02:00,
2013-05-06 10:11:00,64.0,36.0,-100.00,NNW,338,4.0,8.0,35,-99.99,,,0.00,560.000000,,2013-05-06 17:11:00,
2013-05-06 10:42:00,68.0,36.0,-100.00,North,352,8.0,12.0,31,0.00,,,0.00,760.000000,,2013-05-06 17:42:00,
2013-05-06 10:52:00,68.0,36.0,-100.00,North,352,8.0,12.0,31,0.00,,,0.00,760.000000,,2013-05-06 17:52:00,
2013-05-06 11:11:00,68.0,36.0,-100.00,North,352,8.0,12.0,31,0.00,,,0.00,760.000000,,2013-05-06 18:11:00,
2013-05-06 11:43:00,70.0,33.0,-100.00,NNE,23,11.0,22.0,25,0.00,,,0.00,925.000000,,2013-05-06 18:43:00,
2013-05-06 11:52:00,70.0,33.0,-100.00,NNE,23,11.0,22.0,25,0.00,,,0.00,925.000000,,2013-05-06 18:52:00,
2013-05-06 12:01:00,70.0,33.0,-100.00,NNE,23,11.0,22.0,25,0.00,,,0.00,925.000000,,2013-05-06 19:01:00,
2013-05-06 12:11:00,70.0,33.0,-100.00,NNE,23,11.0,22.0,25,0.00,,,0.00,925.000000,,2013-05-06 19:11:00,
2013-05-06 12:42:00,72.0,31.0,-100.00,NNE,23,11.0,27.0,22,0.00,,,-99.99,1041.000000,,2013-05-06 19:42:00,
2013-05-06 12:52:00,72.0,31.0,-100.00,NNE,23,11.0,27.0,22,0.00,,,-99.99,1041.000000,,2013-05-06 19:52:00,
2013-05-06 13:01:00,72.0,31.0,-100.00,NNE,23,11.0,27.0,22,0.00,,,-99.99,1041.000000,,2013-05-06 20:01:00,
2013-05-06 13:11:00,72.0,31.0,-100.00,NNE,23,11.0,27.0,22,0.00,,,-99.99,1041.000000,,2013-05-06 20:11:00,
2013-05-06 13:32:00,71.0,31.0,-100.00,NNE,20,17.0,25.0,23,0.00,,,0.00,1081.000000,,2013-05-06 20:32:00,
2013-05-06 13:42:00,71.0,31.0,-100.00,NNE,20,17.0,25.0,23,0.00,,,0.00,1081.000000,,2013-05-06 20:42:00,
2013-05-06 13:52:00,71.0,31.0,-100.00,NNE,20,17.0,25.0,23,0.00,,,0.00,1081.000000,,2013-05-06 20:52:00,
2013-05-06 14:01:00,71.0,31.0,-100.00,NNE,20,17.0,25.0,23,0.00,,,0.00,1081.000000,,2013-05-06 21:01:00,
2013-05-06 14:11:00,71.0,31.0,-100.00,NNE,20,17.0,25.0,23,0.00,,,0.00,1081.000000,,2013-05-06 21:11:00,
2013-05-06 14:33:00,73.0,33.0,-100.00,North,4,11.0,25.0,23,0.00,,,-99.99,1052.000000,,2013-05-06 21:33:00,
2013-05-06 14:43:00,73.0,33.0,-100.00,North,4,11.0,25.0,23,0.00,,,-99.99,1052.000000,,2013-05-06 21:43:00,
2013-05-06 14:53:00,73.0,33.0,-100.00,North,4,11.0,25.0,23,0.00,,,-99.99,1052.000000,,2013-05-06 21:53:00,
2013-05-06 15:03:00,73.0,33.0,-100.00,North,4,11.0,25.0,23,0.00,,,-99.99,1052.000000,,2013-05-06 22:03:00,
2013-05-06 15:12:00,73.0,33.0,-100.00,North,4,11.0,25.0,23,0.00,,,-99.99,1052.000000,,2013-05-06 22:12:00,
2013-05-06 15:33:00,76.0,33.0,-100.00,NNE,15,9.0,22.0,21,0.00,,,0.00,991.000000,,2013-05-06 22:33:00,
2013-05-06 15:45:00,76.0,33.0,-100.00,NNE,15,9.0,22.0,21,0.00,,,0.00,991.000000,,2013-05-06 22:45:00,
2013-05-06 15:52:00,76.0,33.0,-100.00,NNE,15,9.0,22.0,21,0.00,,,0.00,991.000000,,2013-05-06 22:52:00,
2013-05-06 16:02:00,76.0,33.0,-100.00,NNE,15,9.0,22.0,21,0.00,,,0.00,991.000000,,2013-05-06 23:02:00,
2013-05-06 16:11:00,76.0,33.0,-100.00,NNE,15,9.0,22.0,21,0.00,,,0.00,991.000000,,2013-05-06 23:11:00,
2013-05-06 16:32:00,73.0,30.0,-100.00,NNW,342,15.0,21.0,20,0.00,,,0.00,804.000000,,2013-05-06 23:32:00,
2013-05-06 16:42:00,73.0,30.0,-100.00,NNW,342,15.0,21.0,20,0.00,,,0.00,804.000000,,2013-05-06 23:42:00,
2013-05-06 16:52:00,73.0,30.0,-100.00,NNW,342,15.0,21.0,20,0.00,,,0.00,804.000000,,2013-05-06 23:52:00,
2013-05-06 17:01:00,73.0,30.0,-100.00,NNW,342,15.0,21.0,20,0.00,,,0.00,804.000000,,2013-05-07 00:01:00,
2013-05-06 17:11:00,73.0,30.0,-100.00,NNW,342,15.0,21.0,20,0.00,,,0.00,804.000000,,2013-05-07 00:11:00,
2013-05-06 18:32:00,69.0,26.0,-100.00,NNW,347,15.0,24.0,20,-99.99,,,0.00,468.000000,,2013-05-07 01:32:00,
2013-05-06 18:42:00,69.0,26.0,-100.00,NNW,347,15.0,24.0,20,-99.99,,,0.00,468.000000,,2013-05-07 01:42:00,
2013-05-06 18:52:00,69.0,26.0,-100.00,NNW,347,15.0,24.0,20,-99.99,,,0.00,468.000000,,2013-05-07 01:52:00,
2013-05-06 19:02:00,69.0,26.0,-100.00,NNW,347,15.0,24.0,20,-99.99,,,0.00,468.000000,,2013-05-07 02:02:00,
2013-05-06 19:11:00,69.0,26.0,-100.00,NNW,347,15.0,24.0,20,-99.99,,,0.00,468.000000,,2013-05-07 02:11:00,
2013-05-06 19:32:00,68.0,27.0,-100.00,NNW,344,13.0,24.0,21,0.00,,,0.00,272.000000,,2013-05-07 02:32:00,
2013-05-06 19:42:00,68.0,27.0,-100.00,NNW,344,13.0,24.0,21,0.00,,,0.00,272.000000,,2013-05-07 02:42:00,
2013-05-06 19:52:00,68.0,27.0,-100.00,NNW,344,13.0,24.0,21,0.00,,,0.00,272.000000,,2013-05-07 02:52:00,
2013-05-06 20:01:00,68.0,27.0,-100.00,NNW,344,13.0,24.0,21,0.00,,,0.00,272.000000,,2013-05-07 03:01:00,
2013-05-06 20:11:00,68.0,27.0,-100.00,NNW,344,13.0,24.0,21,0.00,,,0.00,272.000000,,2013-05-07 03:11:00,
2013-05-06 20:43:00,65.0,26.0,-100.00,NNW,348,10.0,19.0,23,0.00,,,0.00,75.000000,,2013-05-07 03:43:00,
2013-05-06 20:53:00,65.0,26.0,-100.00,NNW,348,10.0,19.0,23,0.00,,,0.00,75.000000,,2013-05-07 03:53:00,
2013-05-06 21:02:00,65.0,26.0,-100.00,NNW,348,10.0,19.0,23,0.00,,,0.00,75.000000,,2013-05-07 04:02:00,
2013-05-06 21:12:00,65.0,26.0,-100.00,NNW,348,10.0,19.0,23,0.00,,,0.00,75.000000,,2013-05-07 04:12:00,
2013-05-06 21:42:00,62.0,27.0,-100.00,North,9,7.0,15.0,26,0.00,,,0.00,1.000000,,2013-05-07 04:42:00,
2013-05-06 21:53:00,62.0,27.0,-100.00,North,9,7.0,15.0,26,0.00,,,0.00,1.000000,,2013-05-07 04:53:00,
2013-05-06 22:02:00,62.0,27.0,-100.00,North,9,7.0,15.0,26,0.00,,,0.00,1.000000,,2013-05-07 05:02:00,
2013-05-06 22:12:00,62.0,27.0,-100.00,North,9,7.0,15.0,26,0.00,,,0.00,1.000000,,2013-05-07 05:12:00,
2013-05-06 22:32:00,60.0,27.0,-100.00,NE,38,4.0,8.0,28,0.00,,,0.00,0.000000,,2013-05-07 05:32:00,
2013-05-06 22:42:00,60.0,27.0,-100.00,NE,38,4.0,8.0,28,0.00,,,0.00,0.000000,,2013-05-07 05:42:00,
2013-05-06 22:52:00,60.0,27.0,-100.00,NE,38,4.0,8.0,28,0.00,,,0.00,0.000000,,2013-05-07 05:52:00,
2013-05-06 23:02:00,60.0,27.0,-100.00,NE,38,4.0,8.0,28,0.00,,,0.00,0.000000,,2013-05-07 06:02:00,
2013-05-06 23:12:00,60.0,27.0,-100.00,NE,38,4.0,8.0,28,0.00,,,0.00,0.000000,,2013-05-07 06:12:00,
2013-05-06 23:32:00,58.0,28.0,-100.00,South,183,2.0,5.0,31,0.00,,,0.00,0.000000,,2013-05-07 06:32:00,
2013-05-06 23:42:00,58.0,28.0,-100.00,South,183,2.0,5.0,31,0.00,,,0.00,0.000000,,2013-05-07 06:42:00,
2013-05-06 23:52:00,58.0,28.0,-100.00,South,183,2.0,5.0,31,0.00,,,0.00,0.000000,,2013-05-07 06:52:00,